sensor_id;sensor_type;location;lat;lon;timestamp;pressure;altitude;pressure_sealevel;temperature;humidity
4858;BME280;58975;51.978;8.472;2023-02-19T00:02:49;100425.88;;;8.06;100.00
4858;BME280;58975;51.978;8.472;2023-02-19T00:07:47;100431.19;;;8.06;100.00
4858;BME280;58975;51.978;8.472;2023-02-19T00:12:43;100449.22;;;8.01;100.00
4858;BME280;58975;51.978;8.472;2023-02-19T00:17:40;100448.69;;;7.96;100.00
4858;BME280;58975;51.978;8.472;2023-02-19T00:22:36;100445.31;;;7.94;100.00
4858;BME280;58975;51.978;8.472;2023-02-19T00:27:32;100451.53;;;7.93;100.00
4858;BME280;58975;51.978;8.472;2023-02-19T00:32:29;100450.69;;;7.93;100.00
4858;BME280;58975;51.978;8.472;2023-02-19T00:37:25;100457.63;;;7.95;100.00
4858;BME280;58975;51.978;8.472;2023-02-19T00:42:22;100458.34;;;7.97;100.00
4858;BME280;58975;51.978;8.472;2023-02-19T00:47:18;100457.16;;;8.01;100.00
4858;BME280;58975;51.978;8.472;2023-02-19T00:52:14;100468.53;;;8.03;100.00
4858;BME280;58975;51.978;8.472;2023-02-19T00:57:11;100477.22;;;8.05;100.00
4858;BME280;58975;51.978;8.472;2023-02-19T01:02:07;100481.59;;;8.06;100.00
4858;BME280;58975;51.978;8.472;2023-02-19T01:07:03;100485.94;;;8.07;100.00
4858;BME280;58975;51.978;8.472;2023-02-19T01:12:00;100480.28;;;8.12;100.00
4858;BME280;58975;51.978;8.472;2023-02-19T01:16:56;100484.44;;;8.16;100.00
4858;BME280;58975;51.978;8.472;2023-02-19T01:21:52;100500.59;;;8.26;100.00
4858;BME280;58975;51.978;8.472;2023-02-19T01:26:49;100507.41;;;8.30;100.00
4858;BME280;58975;51.978;8.472;2023-02-19T01:31:45;100520.78;;;8.41;100.00
4858;BME280;58975;51.978;8.472;2023-02-19T01:36:42;100507.41;;;8.42;100.00
4858;BME280;58975;51.978;8.472;2023-02-19T01:41:39;100527.66;;;8.43;100.00
4858;BME280;58975;51.978;8.472;2023-02-19T01:46:38;100533.81;;;8.44;100.00
4858;BME280;58975;51.978;8.472;2023-02-19T01:51:38;100519.91;;;8.53;100.00
4858;BME280;58975;51.978;8.472;2023-02-19T01:56:38;100499.31;;;8.57;100.00
4858;BME280;58975;51.978;8.472;2023-02-19T02:01:37;100491.13;;;8.60;100.00
4858;BME280;58975;51.978;8.472;2023-02-19T02:06:40;100472.53;;;8.60;100.00
4858;BME280;58975;51.978;8.472;2023-02-19T02:11:45;100457.69;;;8.57;100.00
4858;BME280;58975;51.978;8.472;2023-02-19T02:17:08;100460.22;;;8.59;100.00
4858;BME280;58975;51.978;8.472;2023-02-19T02:22:18;100442.63;;;8.58;100.00
4858;BME280;58975;51.978;8.472;2023-02-19T02:27:27;100437.31;;;8.58;100.00
4858;BME280;58975;51.978;8.472;2023-02-19T02:32:32;100416.31;;;8.54;100.00
4858;BME280;58975;51.978;8.472;2023-02-19T02:37:33;100400.38;;;8.54;100.00
4858;BME280;58975;51.978;8.472;2023-02-19T02:42:32;100383.78;;;8.51;100.00
4858;BME280;58975;51.978;8.472;2023-02-19T02:47:33;100377.66;;;8.50;100.00
4858;BME280;58975;51.978;8.472;2023-02-19T02:52:41;100378.84;;;8.46;100.00
4858;BME280;58975;51.978;8.472;2023-02-19T02:57:58;100377.00;;;8.47;100.00
4858;BME280;58975;51.978;8.472;2023-02-19T03:02:55;100366.53;;;8.45;100.00
4858;BME280;58975;51.978;8.472;2023-02-19T03:08:06;100356.00;;;8.44;100.00
4858;BME280;58975;51.978;8.472;2023-02-19T03:13:10;100343.06;;;8.39;100.00
4858;BME280;58975;51.978;8.472;2023-02-19T03:18:29;100336.72;;;8.42;100.00
4858;BME280;58975;51.978;8.472;2023-02-19T03:23:46;100342.03;;;8.42;100.00
4858;BME280;58975;51.978;8.472;2023-02-19T03:29:02;100343.91;;;8.40;100.00
4858;BME280;58975;51.978;8.472;2023-02-19T03:34:40;100342.25;;;8.39;100.00
4858;BME280;58975;51.978;8.472;2023-02-19T03:39:39;100346.56;;;8.40;100.00
4858;BME280;58975;51.978;8.472;2023-02-19T03:51:17;100347.56;;;8.39;100.00
4858;BME280;58975;51.978;8.472;2023-02-19T03:55:56;100351.16;;;8.38;100.00
4858;BME280;58975;51.978;8.472;2023-02-19T04:01:06;100353.28;;;8.33;100.00
4858;BME280;58975;51.978;8.472;2023-02-19T04:06:12;100357.13;;;8.29;100.00
4858;BME280;58975;51.978;8.472;2023-02-19T04:11:10;100358.03;;;8.28;100.00
4858;BME280;58975;51.978;8.472;2023-02-19T04:16:10;100345.63;;;8.28;100.00
4858;BME280;58975;51.978;8.472;2023-02-19T04:21:08;100364.31;;;8.27;100.00
4858;BME280;58975;51.978;8.472;2023-02-19T04:26:06;100350.94;;;8.28;100.00
4858;BME280;58975;51.978;8.472;2023-02-19T04:31:03;100358.03;;;8.28;100.00
4858;BME280;58975;51.978;8.472;2023-02-19T04:36:00;100355.59;;;8.25;100.00
4858;BME280;58975;51.978;8.472;2023-02-19T04:40:56;100349.44;;;8.24;100.00
4858;BME280;58975;51.978;8.472;2023-02-19T04:45:53;100352.72;;;8.28;100.00
4858;BME280;58975;51.978;8.472;2023-02-19T04:50:49;100366.13;;;8.26;100.00
4858;BME280;58975;51.978;8.472;2023-02-19T04:55:45;100369.94;;;8.22;100.00
4858;BME280;58975;51.978;8.472;2023-02-19T05:00:43;100364.75;;;8.21;100.00
4858;BME280;58975;51.978;8.472;2023-02-19T05:05:39;100367.41;;;8.21;100.00
4858;BME280;58975;51.978;8.472;2023-02-19T05:10:35;100369.41;;;8.17;100.00
4858;BME280;58975;51.978;8.472;2023-02-19T05:15:32;100374.81;;;8.16;100.00
4858;BME280;58975;51.978;8.472;2023-02-19T05:20:28;100373.34;;;8.12;100.00
4858;BME280;58975;51.978;8.472;2023-02-19T05:25:25;100375.06;;;8.13;100.00
4858;BME280;58975;51.978;8.472;2023-02-19T05:30:21;100376.97;;;8.11;100.00
4858;BME280;58975;51.978;8.472;2023-02-19T05:35:17;100376.44;;;8.05;100.00
4858;BME280;58975;51.978;8.472;2023-02-19T05:40:14;100401.69;;;7.98;100.00
4858;BME280;58975;51.978;8.472;2023-02-19T05:45:10;100419.09;;;7.90;100.00
4858;BME280;58975;51.978;8.472;2023-02-19T05:50:07;100427.56;;;7.82;100.00
4858;BME280;58975;51.978;8.472;2023-02-19T05:55:03;100440.06;;;7.80;100.00
4858;BME280;58975;51.978;8.472;2023-02-19T05:59:59;100456.19;;;7.77;100.00
4858;BME280;58975;51.978;8.472;2023-02-19T06:04:56;100474.25;;;7.72;100.00
4858;BME280;58975;51.978;8.472;2023-02-19T06:09:52;100492.25;;;7.67;100.00
4858;BME280;58975;51.978;8.472;2023-02-19T06:14:49;100513.66;;;7.64;100.00
4858;BME280;58975;51.978;8.472;2023-02-19T06:19:45;100515.53;;;7.62;100.00
4858;BME280;58975;51.978;8.472;2023-02-19T06:24:42;100526.16;;;7.62;100.00
4858;BME280;58975;51.978;8.472;2023-02-19T06:29:38;100534.31;;;7.59;100.00
4858;BME280;58975;51.978;8.472;2023-02-19T06:34:35;100530.91;;;7.57;100.00
4858;BME280;58975;51.978;8.472;2023-02-19T06:39:31;100537.91;;;7.58;100.00
4858;BME280;58975;51.978;8.472;2023-02-19T06:44:28;100548.63;;;7.56;100.00
4858;BME280;58975;51.978;8.472;2023-02-19T06:49:24;100553.44;;;7.50;100.00
4858;BME280;58975;51.978;8.472;2023-02-19T06:54:20;100575.72;;;7.47;100.00
4858;BME280;58975;51.978;8.472;2023-02-19T06:59:17;100590.47;;;6.68;100.00
4858;BME280;58975;51.978;8.472;2023-02-19T07:04:13;100607.22;;;6.10;100.00
4858;BME280;58975;51.978;8.472;2023-02-19T07:09:11;100606.25;;;5.66;100.00
4858;BME280;58975;51.978;8.472;2023-02-19T07:14:15;100620.16;;;5.38;100.00
4858;BME280;58975;51.978;8.472;2023-02-19T07:19:13;100630.72;;;5.22;100.00
4858;BME280;58975;51.978;8.472;2023-02-19T07:24:10;100638.97;;;5.16;100.00
4858;BME280;58975;51.978;8.472;2023-02-19T07:29:08;100659.81;;;5.05;100.00
4858;BME280;58975;51.978;8.472;2023-02-19T07:34:05;100664.72;;;4.96;100.00
4858;BME280;58975;51.978;8.472;2023-02-19T07:39:03;100668.28;;;4.95;100.00
4858;BME280;58975;51.978;8.472;2023-02-19T07:43:59;100681.41;;;4.96;100.00
4858;BME280;58975;51.978;8.472;2023-02-19T07:48:56;100694.34;;;4.85;100.00
4858;BME280;58975;51.978;8.472;2023-02-19T07:53:54;100695.19;;;4.86;100.00
4858;BME280;58975;51.978;8.472;2023-02-19T07:58:51;100707.81;;;4.96;100.00
4858;BME280;58975;51.978;8.472;2023-02-19T08:03:47;100709.06;;;4.89;100.00
4858;BME280;58975;51.978;8.472;2023-02-19T08:08:45;100719.81;;;5.02;100.00
4858;BME280;58975;51.978;8.472;2023-02-19T08:13:42;100719.69;;;5.05;100.00
4858;BME280;58975;51.978;8.472;2023-02-19T08:18:38;100736.44;;;5.04;100.00
4858;BME280;58975;51.978;8.472;2023-02-19T08:23:34;100731.09;;;5.05;100.00
4858;BME280;58975;51.978;8.472;2023-02-19T08:28:31;100729.31;;;5.21;100.00
4858;BME280;58975;51.978;8.472;2023-02-19T08:33:28;100743.50;;;5.03;100.00
4858;BME280;58975;51.978;8.472;2023-02-19T08:38:25;100748.25;;;5.30;100.00
4858;BME280;58975;51.978;8.472;2023-02-19T08:43:22;100740.94;;;5.35;100.00
4858;BME280;58975;51.978;8.472;2023-02-19T08:48:18;100752.16;;;5.22;100.00
4858;BME280;58975;51.978;8.472;2023-02-19T08:53:14;100757.28;;;5.25;100.00
4858;BME280;58975;51.978;8.472;2023-02-19T08:58:11;100766.16;;;5.24;100.00
4858;BME280;58975;51.978;8.472;2023-02-19T09:03:08;100771.91;;;5.15;100.00
4858;BME280;58975;51.978;8.472;2023-02-19T09:08:04;100780.63;;;5.00;100.00
4858;BME280;58975;51.978;8.472;2023-02-19T09:13:00;100791.81;;;4.88;100.00
4858;BME280;58975;51.978;8.472;2023-02-19T09:17:58;100802.66;;;5.16;100.00
4858;BME280;58975;51.978;8.472;2023-02-19T09:22:56;100822.84;;;5.17;100.00
4858;BME280;58975;51.978;8.472;2023-02-19T09:27:55;100827.06;;;5.37;100.00
4858;BME280;58975;51.978;8.472;2023-02-19T09:32:52;100819.44;;;5.81;100.00
4858;BME280;58975;51.978;8.472;2023-02-19T09:37:49;100833.00;;;5.75;100.00
4858;BME280;58975;51.978;8.472;2023-02-19T09:42:46;100839.00;;;5.11;100.00
4858;BME280;58975;51.978;8.472;2023-02-19T09:47:43;100851.06;;;5.50;100.00
4858;BME280;58975;51.978;8.472;2023-02-19T09:52:48;100867.09;;;5.12;100.00
4858;BME280;58975;51.978;8.472;2023-02-19T09:57:47;100878.44;;;4.97;100.00
4858;BME280;58975;51.978;8.472;2023-02-19T10:02:43;100891.78;;;5.11;100.00
4858;BME280;58975;51.978;8.472;2023-02-19T10:07:44;100900.63;;;4.93;100.00
4858;BME280;58975;51.978;8.472;2023-02-19T10:12:46;100907.53;;;4.96;100.00
4858;BME280;58975;51.978;8.472;2023-02-19T10:17:43;100924.09;;;5.34;100.00
4858;BME280;58975;51.978;8.472;2023-02-19T10:22:39;100926.75;;;5.51;100.00
4858;BME280;58975;51.978;8.472;2023-02-19T10:27:35;100938.25;;;5.50;100.00
4858;BME280;58975;51.978;8.472;2023-02-19T10:32:32;100934.50;;;5.71;100.00
4858;BME280;58975;51.978;8.472;2023-02-19T10:37:28;100957.91;;;5.44;100.00
4858;BME280;58975;51.978;8.472;2023-02-19T10:42:25;100973.50;;;5.32;100.00
4858;BME280;58975;51.978;8.472;2023-02-19T10:47:24;100981.50;;;5.82;100.00
4858;BME280;58975;51.978;8.472;2023-02-19T10:52:29;100962.28;;;6.12;100.00
4858;BME280;58975;51.978;8.472;2023-02-19T10:57:29;100961.72;;;5.90;100.00
4858;BME280;58975;51.978;8.472;2023-02-19T11:02:27;100972.91;;;6.44;100.00
4858;BME280;58975;51.978;8.472;2023-02-19T11:07:24;100974.66;;;6.76;100.00
4858;BME280;58975;51.978;8.472;2023-02-19T11:12:26;100972.50;;;7.14;100.00
4858;BME280;58975;51.978;8.472;2023-02-19T11:17:25;100980.25;;;7.33;100.00
4858;BME280;58975;51.978;8.472;2023-02-19T11:22:38;100983.84;;;7.32;100.00
4858;BME280;58975;51.978;8.472;2023-02-19T11:27:52;100995.41;;;7.45;100.00
4858;BME280;58975;51.978;8.472;2023-02-19T11:32:49;100991.72;;;7.02;100.00
4858;BME280;58975;51.978;8.472;2023-02-19T11:53:25;100982.72;;;7.36;100.00
4858;BME280;58975;51.978;8.472;2023-02-19T12:14:41;100975.78;;;8.78;100.00
4858;BME280;58975;51.978;8.472;2023-02-19T12:19:53;100980.69;;;8.27;100.00
4858;BME280;58975;51.978;8.472;2023-02-19T12:31:23;100991.66;;;7.49;100.00
4858;BME280;58975;51.978;8.472;2023-02-19T12:36:12;101004.88;;;7.03;100.00
4858;BME280;58975;51.978;8.472;2023-02-19T12:41:19;101002.31;;;6.86;100.00
4858;BME280;58975;51.978;8.472;2023-02-19T12:46:30;101004.63;;;6.92;100.00
4858;BME280;58975;51.978;8.472;2023-02-19T12:51:42;101011.72;;;7.53;100.00
4858;BME280;58975;51.978;8.472;2023-02-19T12:56:46;101020.19;;;7.59;100.00
4858;BME280;58975;51.978;8.472;2023-02-19T13:01:55;101027.78;;;7.95;100.00
4858;BME280;58975;51.978;8.472;2023-02-19T13:07:00;101030.88;;;8.60;100.00
4858;BME280;58975;51.978;8.472;2023-02-19T13:12:01;101034.31;;;8.04;100.00
4858;BME280;58975;51.978;8.472;2023-02-19T13:17:05;101031.31;;;7.80;100.00
4858;BME280;58975;51.978;8.472;2023-02-19T13:22:26;101028.19;;;8.18;100.00
4858;BME280;58975;51.978;8.472;2023-02-19T13:27:56;101030.19;;;7.84;100.00
4858;BME280;58975;51.978;8.472;2023-02-19T13:33:02;101028.09;;;7.75;100.00
4858;BME280;58975;51.978;8.472;2023-02-19T13:38:02;101036.69;;;8.38;100.00
4858;BME280;58975;51.978;8.472;2023-02-19T13:43:06;101040.72;;;7.56;100.00
4858;BME280;58975;51.978;8.472;2023-02-19T13:48:37;101036.91;;;7.30;100.00
4858;BME280;58975;51.978;8.472;2023-02-19T13:58:54;101026.84;;;7.05;100.00
4858;BME280;58975;51.978;8.472;2023-02-19T14:04:07;101029.66;;;7.02;100.00
4858;BME280;58975;51.978;8.472;2023-02-19T14:14:55;101052.56;;;7.03;100.00
4858;BME280;58975;51.978;8.472;2023-02-19T14:19:59;101061.84;;;7.26;100.00
4858;BME280;58975;51.978;8.472;2023-02-19T14:24:56;101067.94;;;7.12;100.00
4858;BME280;58975;51.978;8.472;2023-02-19T14:29:53;101078.38;;;7.16;100.00
4858;BME280;58975;51.978;8.472;2023-02-19T14:34:49;101078.00;;;7.06;100.00
4858;BME280;58975;51.978;8.472;2023-02-19T14:39:46;101084.00;;;6.94;100.00
4858;BME280;58975;51.978;8.472;2023-02-19T14:44:49;101088.94;;;7.00;100.00
4858;BME280;58975;51.978;8.472;2023-02-19T14:49:51;101101.72;;;6.76;100.00
4858;BME280;58975;51.978;8.472;2023-02-19T14:59:59;101072.63;;;6.59;100.00
4858;BME280;58975;51.978;8.472;2023-02-19T15:04:55;101064.13;;;6.54;100.00
4858;BME280;58975;51.978;8.472;2023-02-19T15:09:55;101047.81;;;6.61;100.00
4858;BME280;58975;51.978;8.472;2023-02-19T15:14:55;101037.25;;;6.77;100.00
4858;BME280;58975;51.978;8.472;2023-02-19T15:19:55;101031.38;;;6.88;100.00
4858;BME280;58975;51.978;8.472;2023-02-19T15:24:54;101030.34;;;6.90;100.00
4858;BME280;58975;51.978;8.472;2023-02-19T15:29:52;101033.41;;;6.83;100.00
4858;BME280;58975;51.978;8.472;2023-02-19T15:35:00;101040.41;;;6.68;100.00
4858;BME280;58975;51.978;8.472;2023-02-19T15:39:59;101024.00;;;6.61;100.00
4858;BME280;58975;51.978;8.472;2023-02-19T15:45:05;101028.09;;;6.67;100.00
4858;BME280;58975;51.978;8.472;2023-02-19T15:50:11;101024.34;;;6.87;100.00
4858;BME280;58975;51.978;8.472;2023-02-19T15:55:19;101022.06;;;6.81;100.00
4858;BME280;58975;51.978;8.472;2023-02-19T16:00:21;101029.31;;;6.77;100.00
4858;BME280;58975;51.978;8.472;2023-02-19T16:05:25;101043.28;;;6.63;100.00
4858;BME280;58975;51.978;8.472;2023-02-19T16:10:23;101050.75;;;6.40;100.00
4858;BME280;58975;51.978;8.472;2023-02-19T16:15:20;101062.13;;;6.25;100.00
4858;BME280;58975;51.978;8.472;2023-02-19T16:20:23;101066.72;;;6.21;100.00
4858;BME280;58975;51.978;8.472;2023-02-19T16:25:27;101074.91;;;6.16;100.00
4858;BME280;58975;51.978;8.472;2023-02-19T16:30:30;101081.91;;;6.17;100.00
4858;BME280;58975;51.978;8.472;2023-02-19T16:35:36;101092.47;;;6.17;100.00
4858;BME280;58975;51.978;8.472;2023-02-19T16:45:44;101095.06;;;6.19;100.00
4858;BME280;58975;51.978;8.472;2023-02-19T16:50:41;101097.31;;;6.09;100.00
4858;BME280;58975;51.978;8.472;2023-02-19T16:55:37;101110.22;;;5.98;100.00
4858;BME280;58975;51.978;8.472;2023-02-19T17:00:33;101109.44;;;5.96;100.00
4858;BME280;58975;51.978;8.472;2023-02-19T17:05:30;101117.63;;;5.92;100.00
4858;BME280;58975;51.978;8.472;2023-02-19T17:10:27;101123.59;;;5.77;100.00
4858;BME280;58975;51.978;8.472;2023-02-19T17:15:24;101121.22;;;5.72;100.00
4858;BME280;58975;51.978;8.472;2023-02-19T17:20:26;101123.06;;;5.70;100.00
4858;BME280;58975;51.978;8.472;2023-02-19T17:25:24;101131.41;;;5.61;100.00
4858;BME280;58975;51.978;8.472;2023-02-19T17:30:26;101136.22;;;5.53;100.00
4858;BME280;58975;51.978;8.472;2023-02-19T17:35:23;101144.75;;;5.41;100.00
4858;BME280;58975;51.978;8.472;2023-02-19T17:40:23;101138.66;;;5.39;100.00
4858;BME280;58975;51.978;8.472;2023-02-19T17:45:28;101144.97;;;5.36;100.00
4858;BME280;58975;51.978;8.472;2023-02-19T17:50:28;101145.94;;;5.34;100.00
4858;BME280;58975;51.978;8.472;2023-02-19T17:55:25;101138.97;;;5.33;100.00
4858;BME280;58975;51.978;8.472;2023-02-19T18:00:27;101138.09;;;5.32;100.00
4858;BME280;58975;51.978;8.472;2023-02-19T18:05:24;101132.97;;;5.29;100.00
4858;BME280;58975;51.978;8.472;2023-02-19T18:10:21;101135.53;;;5.31;100.00
4858;BME280;58975;51.978;8.472;2023-02-19T18:15:21;101145.31;;;5.29;100.00
4858;BME280;58975;51.978;8.472;2023-02-19T18:20:21;101140.81;;;5.31;100.00
4858;BME280;58975;51.978;8.472;2023-02-19T18:25:20;101139.94;;;5.30;100.00
4858;BME280;58975;51.978;8.472;2023-02-19T18:30:18;101156.66;;;5.31;100.00
4858;BME280;58975;51.978;8.472;2023-02-19T18:35:18;101164.59;;;5.31;100.00
4858;BME280;58975;51.978;8.472;2023-02-19T18:40:14;101168.09;;;5.31;100.00
4858;BME280;58975;51.978;8.472;2023-02-19T18:45:11;101177.78;;;5.31;100.00
4858;BME280;58975;51.978;8.472;2023-02-19T18:50:08;101171.66;;;5.30;100.00
4858;BME280;58975;51.978;8.472;2023-02-19T18:55:05;101177.78;;;5.31;100.00
4858;BME280;58975;51.978;8.472;2023-02-19T19:00:03;101176.81;;;5.33;100.00
4858;BME280;58975;51.978;8.472;2023-02-19T19:05:01;101185.66;;;5.32;100.00
4858;BME280;58975;51.978;8.472;2023-02-19T19:09:58;101188.91;;;5.37;100.00
4858;BME280;58975;51.978;8.472;2023-02-19T19:14:54;101189.78;;;5.38;100.00
4858;BME280;58975;51.978;8.472;2023-02-19T19:19:51;101189.91;;;5.35;100.00
4858;BME280;58975;51.978;8.472;2023-02-19T19:24:47;101194.13;;;5.39;100.00
4858;BME280;58975;51.978;8.472;2023-02-19T19:29:44;101209.06;;;5.40;100.00
4858;BME280;58975;51.978;8.472;2023-02-19T19:34:42;101198.34;;;5.43;100.00
4858;BME280;58975;51.978;8.472;2023-02-19T19:39:41;101201.84;;;5.43;100.00
4858;BME280;58975;51.978;8.472;2023-02-19T19:44:37;101192.41;;;5.38;100.00
4858;BME280;58975;51.978;8.472;2023-02-19T19:49:34;101191.66;;;5.36;100.00
4858;BME280;58975;51.978;8.472;2023-02-19T19:54:30;101200.56;;;5.33;100.00
4858;BME280;58975;51.978;8.472;2023-02-19T19:59:27;101207.03;;;5.26;100.00
4858;BME280;58975;51.978;8.472;2023-02-19T20:04:24;101226.53;;;5.23;100.00
4858;BME280;58975;51.978;8.472;2023-02-19T20:09:20;101230.97;;;5.23;100.00
4858;BME280;58975;51.978;8.472;2023-02-19T20:14:22;101243.38;;;5.21;100.00
4858;BME280;58975;51.978;8.472;2023-02-19T20:19:19;101250.44;;;5.20;100.00
4858;BME280;58975;51.978;8.472;2023-02-19T20:24:18;101261.94;;;5.19;100.00
4858;BME280;58975;51.978;8.472;2023-02-19T20:29:15;101262.84;;;5.18;100.00
4858;BME280;58975;51.978;8.472;2023-02-19T20:34:12;101256.69;;;5.18;100.00
4858;BME280;58975;51.978;8.472;2023-02-19T20:39:08;101252.28;;;5.18;100.00
4858;BME280;58975;51.978;8.472;2023-02-19T20:44:05;101250.59;;;5.17;100.00
4858;BME280;58975;51.978;8.472;2023-02-19T20:49:01;101255.78;;;5.19;100.00
4858;BME280;58975;51.978;8.472;2023-02-19T20:53:58;101240.50;;;5.25;100.00
4858;BME280;58975;51.978;8.472;2023-02-19T20:58:54;101226.38;;;5.27;100.00
4858;BME280;58975;51.978;8.472;2023-02-19T21:03:50;101242.31;;;5.25;100.00
4858;BME280;58975;51.978;8.472;2023-02-19T21:08:47;101239.78;;;5.22;100.00
4858;BME280;58975;51.978;8.472;2023-02-19T21:13:43;101250.44;;;5.20;100.00
4858;BME280;58975;51.978;8.472;2023-02-19T21:18:39;101253.09;;;5.20;100.00
4858;BME280;58975;51.978;8.472;2023-02-19T21:23:36;101244.22;;;5.21;100.00
4858;BME280;58975;51.978;8.472;2023-02-19T21:28:33;101248.56;;;5.22;100.00
4858;BME280;58975;51.978;8.472;2023-02-19T21:33:29;101251.16;;;5.24;100.00
4858;BME280;58975;51.978;8.472;2023-02-19T21:38:25;101258.16;;;5.25;100.00
4858;BME280;58975;51.978;8.472;2023-02-19T21:43:22;101251.06;;;5.25;100.00
4858;BME280;58975;51.978;8.472;2023-02-19T21:48:18;101241.31;;;5.28;100.00
4858;BME280;58975;51.978;8.472;2023-02-19T21:53:15;101227.31;;;5.25;100.00
4858;BME280;58975;51.978;8.472;2023-02-19T21:58:11;101222.88;;;5.26;100.00
4858;BME280;58975;51.978;8.472;2023-02-19T22:03:14;101221.34;;;5.41;100.00
4858;BME280;58975;51.978;8.472;2023-02-19T22:08:11;101226.63;;;5.41;100.00
4858;BME280;58975;51.978;8.472;2023-02-19T22:13:10;101212.63;;;5.39;100.00
4858;BME280;58975;51.978;8.472;2023-02-19T22:18:07;101218.97;;;5.35;100.00
4858;BME280;58975;51.978;8.472;2023-02-19T22:23:04;101208.41;;;5.35;100.00
4858;BME280;58975;51.978;8.472;2023-02-19T22:28:02;101196.28;;;5.31;100.00
4858;BME280;58975;51.978;8.472;2023-02-19T22:32:58;101190.06;;;5.32;100.00
4858;BME280;58975;51.978;8.472;2023-02-19T22:37:55;101184.78;;;5.32;100.00
4858;BME280;58975;51.978;8.472;2023-02-19T22:42:51;101189.28;;;5.30;100.00
4858;BME280;58975;51.978;8.472;2023-02-19T22:47:48;101191.19;;;5.26;100.00
4858;BME280;58975;51.978;8.472;2023-02-19T22:52:44;101195.63;;;5.25;100.00
4858;BME280;58975;51.978;8.472;2023-02-19T22:57:41;101206.31;;;5.22;100.00
4858;BME280;58975;51.978;8.472;2023-02-19T23:02:37;101212.53;;;5.21;100.00
4858;BME280;58975;51.978;8.472;2023-02-19T23:07:33;101198.56;;;5.19;100.00
4858;BME280;58975;51.978;8.472;2023-02-19T23:12:30;101210.03;;;5.18;100.00
4858;BME280;58975;51.978;8.472;2023-02-19T23:17:26;101216.31;;;5.16;100.00
4858;BME280;58975;51.978;8.472;2023-02-19T23:22:23;101224.44;;;5.11;100.00
4858;BME280;58975;51.978;8.472;2023-02-19T23:27:19;101207.03;;;5.07;100.00
4858;BME280;58975;51.978;8.472;2023-02-19T23:32:16;101209.66;;;5.07;100.00
4858;BME280;58975;51.978;8.472;2023-02-19T23:37:16;101201.03;;;5.04;100.00
4858;BME280;58975;51.978;8.472;2023-02-19T23:42:14;101195.91;;;5.01;100.00
4858;BME280;58975;51.978;8.472;2023-02-19T23:47:14;101184.63;;;4.97;100.00
4858;BME280;58975;51.978;8.472;2023-02-19T23:52:10;101186.53;;;4.94;100.00
4858;BME280;58975;51.978;8.472;2023-02-19T23:57:07;101199.75;;;4.94;100.00
